sensor_id;sensor_type;location;lat;lon;timestamp;pressure;altitude;pressure_sealevel;temperature;humidity
76746;BME280;65671;49.976;20.038;2023-03-20T00:00:49;97980.22;;;7.43;57.08
76746;BME280;65671;49.976;20.038;2023-03-20T00:03:15;97986.34;;;7.40;56.71
76746;BME280;65671;49.976;20.038;2023-03-20T00:05:41;97988.69;;;7.45;56.51
76746;BME280;65671;49.976;20.038;2023-03-20T00:08:06;97987.97;;;7.48;56.58
76746;BME280;65671;49.976;20.038;2023-03-20T00:10:41;97984.94;;;7.53;56.64
76746;BME280;65671;49.976;20.038;2023-03-20T00:13:17;97978.00;;;7.52;56.55
76746;BME280;65671;49.976;20.038;2023-03-20T00:15:44;97995.69;;;7.49;56.76
76746;BME280;65671;49.976;20.038;2023-03-20T00:18:21;97991.91;;;7.57;55.55
76746;BME280;65671;49.976;20.038;2023-03-20T00:20:49;97981.56;;;7.63;56.44
76746;BME280;65671;49.976;20.038;2023-03-20T00:23:16;97983.13;;;7.64;55.69
76746;BME280;65671;49.976;20.038;2023-03-20T00:25:43;97976.16;;;7.63;55.94
76746;BME280;65671;49.976;20.038;2023-03-20T00:28:34;97984.59;;;7.58;56.32
76746;BME280;65671;49.976;20.038;2023-03-20T00:31:04;97979.22;;;7.58;56.02
76746;BME280;65671;49.976;20.038;2023-03-20T00:33:31;97977.22;;;7.51;56.12
76746;BME280;65671;49.976;20.038;2023-03-20T00:35:56;97970.16;;;7.36;56.74
76746;BME280;65671;49.976;20.038;2023-03-20T00:38:23;97974.44;;;7.41;57.02
76746;BME280;65671;49.976;20.038;2023-03-20T00:40:50;97976.78;;;7.46;56.38
76746;BME280;65671;49.976;20.038;2023-03-20T00:43:16;97977.66;;;7.57;55.93
76746;BME280;65671;49.976;20.038;2023-03-20T00:45:44;97977.19;;;7.48;56.25
76746;BME280;65671;49.976;20.038;2023-03-20T00:48:14;97971.75;;;7.41;56.43
76746;BME280;65671;49.976;20.038;2023-03-20T00:50:41;97970.19;;;7.40;56.59
76746;BME280;65671;49.976;20.038;2023-03-20T00:53:10;97969.09;;;7.48;56.08
76746;BME280;65671;49.976;20.038;2023-03-20T00:55:37;97968.34;;;7.51;55.96
76746;BME280;65671;49.976;20.038;2023-03-20T00:58:04;97963.72;;;7.48;56.29
76746;BME280;65671;49.976;20.038;2023-03-20T01:00:41;97966.50;;;7.58;55.72
76746;BME280;65671;49.976;20.038;2023-03-20T01:03:17;97957.69;;;7.65;55.13
76746;BME280;65671;49.976;20.038;2023-03-20T01:05:44;97966.88;;;7.57;55.89
76746;BME280;65671;49.976;20.038;2023-03-20T01:08:18;97964.25;;;7.64;55.10
76746;BME280;65671;49.976;20.038;2023-03-20T01:10:48;97961.84;;;7.52;54.63
76746;BME280;65671;49.976;20.038;2023-03-20T01:13:26;97963.78;;;7.55;54.73
76746;BME280;65671;49.976;20.038;2023-03-20T01:15:53;97954.16;;;7.54;54.60
76746;BME280;65671;49.976;20.038;2023-03-20T01:18:21;97967.25;;;7.55;54.60
76746;BME280;65671;49.976;20.038;2023-03-20T01:20:48;97955.69;;;7.55;54.60
76746;BME280;65671;49.976;20.038;2023-03-20T01:23:14;97955.63;;;7.48;53.95
76746;BME280;65671;49.976;20.038;2023-03-20T01:25:40;97964.91;;;7.54;54.08
76746;BME280;65671;49.976;20.038;2023-03-20T01:28:18;97967.09;;;7.38;54.53
76746;BME280;65671;49.976;20.038;2023-03-20T01:30:46;97960.88;;;7.34;55.20
76746;BME280;65671;49.976;20.038;2023-03-20T01:33:20;97958.19;;;7.34;54.66
76746;BME280;65671;49.976;20.038;2023-03-20T01:35:47;97957.06;;;7.38;54.27
76746;BME280;65671;49.976;20.038;2023-03-20T01:38:22;97963.66;;;7.41;54.20
76746;BME280;65671;49.976;20.038;2023-03-20T01:40:57;97963.53;;;7.30;54.67
76746;BME280;65671;49.976;20.038;2023-03-20T01:43:27;97961.28;;;7.36;54.18
76746;BME280;65671;49.976;20.038;2023-03-20T01:46:03;97961.56;;;7.23;54.64
76746;BME280;65671;49.976;20.038;2023-03-20T01:51:22;97957.72;;;7.24;54.57
76746;BME280;65671;49.976;20.038;2023-03-20T01:54:06;97968.41;;;7.14;55.14
76746;BME280;65671;49.976;20.038;2023-03-20T01:56:38;97954.44;;;7.05;55.29
76746;BME280;65671;49.976;20.038;2023-03-20T01:59:10;97964.78;;;7.03;55.50
76746;BME280;65671;49.976;20.038;2023-03-20T02:01:38;97952.16;;;7.07;55.66
76746;BME280;65671;49.976;20.038;2023-03-20T02:04:05;97951.81;;;7.08;54.74
76746;BME280;65671;49.976;20.038;2023-03-20T02:06:31;97960.53;;;6.98;55.94
76746;BME280;65671;49.976;20.038;2023-03-20T02:08:57;97957.94;;;7.09;55.49
76746;BME280;65671;49.976;20.038;2023-03-20T02:11:23;97947.94;;;7.09;54.95
76746;BME280;65671;49.976;20.038;2023-03-20T02:13:52;97952.34;;;7.24;54.10
76746;BME280;65671;49.976;20.038;2023-03-20T02:16:18;97968.06;;;7.19;54.70
76746;BME280;65671;49.976;20.038;2023-03-20T02:18:46;97956.50;;;7.18;54.79
76746;BME280;65671;49.976;20.038;2023-03-20T02:24:27;97958.75;;;7.13;54.65
76746;BME280;65671;49.976;20.038;2023-03-20T02:33:07;97967.50;;;7.40;53.76
76746;BME280;65671;49.976;20.038;2023-03-20T02:47:11;97960.75;;;7.19;54.48
76746;BME280;65671;49.976;20.038;2023-03-20T02:54:59;97958.31;;;7.07;55.09
76746;BME280;65671;49.976;20.038;2023-03-20T02:57:50;97956.72;;;6.99;54.86
76746;BME280;65671;49.976;20.038;2023-03-20T03:00:27;97943.56;;;6.94;54.99
76746;BME280;65671;49.976;20.038;2023-03-20T03:03:15;97962.09;;;7.03;54.42
76746;BME280;65671;49.976;20.038;2023-03-20T03:05:45;97945.94;;;6.99;55.08
76746;BME280;65671;49.976;20.038;2023-03-20T03:08:13;97942.94;;;7.08;54.05
76746;BME280;65671;49.976;20.038;2023-03-20T03:11:03;97946.00;;;7.06;54.94
76746;BME280;65671;49.976;20.038;2023-03-20T03:13:31;97945.25;;;7.09;54.12
76746;BME280;65671;49.976;20.038;2023-03-20T03:16:05;97933.53;;;6.91;55.41
76746;BME280;65671;49.976;20.038;2023-03-20T03:18:34;97940.94;;;7.01;54.66
76746;BME280;65671;49.976;20.038;2023-03-20T03:21:02;97942.56;;;7.09;54.51
76746;BME280;65671;49.976;20.038;2023-03-20T03:23:45;97931.31;;;7.00;54.41
76746;BME280;65671;49.976;20.038;2023-03-20T03:26:20;97939.22;;;7.19;53.96
76746;BME280;65671;49.976;20.038;2023-03-20T03:28:49;97936.97;;;7.25;53.18
76746;BME280;65671;49.976;20.038;2023-03-20T03:31:18;97926.16;;;7.21;53.99
76746;BME280;65671;49.976;20.038;2023-03-20T03:33:47;97931.19;;;7.26;53.72
76746;BME280;65671;49.976;20.038;2023-03-20T03:36:47;97931.94;;;7.23;53.81
76746;BME280;65671;49.976;20.038;2023-03-20T03:47:06;97931.66;;;7.36;53.04
76746;BME280;65671;49.976;20.038;2023-03-20T03:49:41;97930.44;;;7.29;53.22
76746;BME280;65671;49.976;20.038;2023-03-20T03:52:13;97933.59;;;7.35;53.13
76746;BME280;65671;49.976;20.038;2023-03-20T03:54:52;97930.75;;;7.21;53.58
76746;BME280;65671;49.976;20.038;2023-03-20T03:57:28;97931.13;;;7.19;53.81
76746;BME280;65671;49.976;20.038;2023-03-20T03:59:56;97931.53;;;7.21;53.52
76746;BME280;65671;49.976;20.038;2023-03-20T04:02:22;97931.75;;;7.06;54.46
76746;BME280;65671;49.976;20.038;2023-03-20T04:04:51;97928.28;;;7.02;54.78
76746;BME280;65671;49.976;20.038;2023-03-20T04:07:17;97932.03;;;6.94;54.97
76746;BME280;65671;49.976;20.038;2023-03-20T04:09:43;97932.53;;;7.06;54.58
76746;BME280;65671;49.976;20.038;2023-03-20T04:12:33;97931.00;;;7.05;54.07
76746;BME280;65671;49.976;20.038;2023-03-20T04:14:59;97938.31;;;7.05;54.17
76746;BME280;65671;49.976;20.038;2023-03-20T04:17:25;97945.94;;;7.03;54.18
76746;BME280;65671;49.976;20.038;2023-03-20T04:19:50;97932.00;;;6.90;55.18
76746;BME280;65671;49.976;20.038;2023-03-20T04:22:16;97936.63;;;6.93;54.47
76746;BME280;65671;49.976;20.038;2023-03-20T04:24:41;97921.91;;;6.84;54.81
76746;BME280;65671;49.976;20.038;2023-03-20T04:27:07;97933.03;;;6.82;55.11
76746;BME280;65671;49.976;20.038;2023-03-20T04:29:32;97933.81;;;6.83;54.73
76746;BME280;65671;49.976;20.038;2023-03-20T04:31:58;97938.34;;;6.75;55.46
76746;BME280;65671;49.976;20.038;2023-03-20T04:34:24;97924.00;;;6.64;55.43
76746;BME280;65671;49.976;20.038;2023-03-20T04:36:50;97930.28;;;6.75;55.72
76746;BME280;65671;49.976;20.038;2023-03-20T04:39:15;97923.38;;;6.78;54.93
76746;BME280;65671;49.976;20.038;2023-03-20T04:41:41;97938.47;;;6.86;55.08
76746;BME280;65671;49.976;20.038;2023-03-20T04:44:06;97936.47;;;6.79;55.75
76746;BME280;65671;49.976;20.038;2023-03-20T04:46:32;97942.72;;;6.87;54.84
76746;BME280;65671;49.976;20.038;2023-03-20T04:48:57;97937.28;;;6.83;54.89
76746;BME280;65671;49.976;20.038;2023-03-20T04:51:23;97943.41;;;6.80;55.48
76746;BME280;65671;49.976;20.038;2023-03-20T04:53:49;97938.47;;;6.86;55.30
76746;BME280;65671;49.976;20.038;2023-03-20T04:56:14;97945.84;;;6.92;54.79
76746;BME280;65671;49.976;20.038;2023-03-20T04:58:40;97935.91;;;6.96;54.98
76746;BME280;65671;49.976;20.038;2023-03-20T05:01:06;97934.44;;;7.02;54.51
76746;BME280;65671;49.976;20.038;2023-03-20T05:03:31;97938.31;;;7.05;54.81
76746;BME280;65671;49.976;20.038;2023-03-20T05:05:58;97930.22;;;7.05;54.72
76746;BME280;65671;49.976;20.038;2023-03-20T05:08:24;97947.59;;;7.11;54.47
76746;BME280;65671;49.976;20.038;2023-03-20T05:10:50;97936.31;;;6.98;55.45
76746;BME280;65671;49.976;20.038;2023-03-20T05:13:16;97949.91;;;7.12;54.78
76746;BME280;65671;49.976;20.038;2023-03-20T05:15:42;97945.34;;;7.16;54.77
76746;BME280;65671;49.976;20.038;2023-03-20T05:18:08;97949.25;;;7.22;54.64
76746;BME280;65671;49.976;20.038;2023-03-20T05:20:34;97946.94;;;7.24;53.91
76746;BME280;65671;49.976;20.038;2023-03-20T05:23:01;97957.84;;;7.35;53.78
76746;BME280;65671;49.976;20.038;2023-03-20T05:25:27;97949.34;;;7.33;53.69
76746;BME280;65671;49.976;20.038;2023-03-20T05:27:53;97955.59;;;7.44;53.98
76746;BME280;65671;49.976;20.038;2023-03-20T05:30:18;97951.72;;;7.42;53.40
76746;BME280;65671;49.976;20.038;2023-03-20T05:32:47;97954.47;;;7.45;53.59
76746;BME280;65671;49.976;20.038;2023-03-20T05:35:13;97959.50;;;7.50;53.77
76746;BME280;65671;49.976;20.038;2023-03-20T05:37:39;97952.56;;;7.49;53.67
76746;BME280;65671;49.976;20.038;2023-03-20T05:40:05;97958.34;;;7.51;53.23
76746;BME280;65671;49.976;20.038;2023-03-20T05:42:31;97965.75;;;7.58;53.55
76746;BME280;65671;49.976;20.038;2023-03-20T05:44:56;97962.31;;;7.61;53.28
76746;BME280;65671;49.976;20.038;2023-03-20T05:47:22;97960.34;;;7.58;53.71
76746;BME280;65671;49.976;20.038;2023-03-20T05:49:48;97955.75;;;7.58;52.83
76746;BME280;65671;49.976;20.038;2023-03-20T05:52:13;97958.91;;;7.71;53.38
76746;BME280;65671;49.976;20.038;2023-03-20T05:54:39;97967.34;;;7.66;53.80
76746;BME280;65671;49.976;20.038;2023-03-20T05:57:04;97959.66;;;7.68;53.36
76746;BME280;65671;49.976;20.038;2023-03-20T05:59:30;97950.03;;;7.67;53.66
76746;BME280;65671;49.976;20.038;2023-03-20T06:01:55;97961.59;;;7.71;53.16
76746;BME280;65671;49.976;20.038;2023-03-20T06:04:20;97960.84;;;7.70;53.32
76746;BME280;65671;49.976;20.038;2023-03-20T06:06:46;97958.88;;;7.64;53.91
76746;BME280;65671;49.976;20.038;2023-03-20T06:09:12;97961.56;;;7.64;53.87
76746;BME280;65671;49.976;20.038;2023-03-20T06:11:37;97960.28;;;7.51;54.34
76746;BME280;65671;49.976;20.038;2023-03-20T06:14:03;97961.38;;;7.43;54.07
76746;BME280;65671;49.976;20.038;2023-03-20T06:16:28;97969.41;;;7.39;54.49
76746;BME280;65671;49.976;20.038;2023-03-20T06:18:54;97967.88;;;7.42;54.61
76746;BME280;65671;49.976;20.038;2023-03-20T06:21:19;97961.00;;;7.48;54.43
76746;BME280;65671;49.976;20.038;2023-03-20T06:23:45;97961.75;;;7.45;55.04
76746;BME280;65671;49.976;20.038;2023-03-20T06:26:10;97968.63;;;7.39;54.40
76746;BME280;65671;49.976;20.038;2023-03-20T06:28:36;97971.75;;;7.41;54.27
76746;BME280;65671;49.976;20.038;2023-03-20T06:31:07;97976.72;;;7.39;54.41
76746;BME280;65671;49.976;20.038;2023-03-20T06:33:35;97981.44;;;7.49;54.11
76746;BME280;65671;49.976;20.038;2023-03-20T06:36:03;97986.47;;;7.54;54.10
76746;BME280;65671;49.976;20.038;2023-03-20T06:38:29;97980.69;;;7.52;54.07
76746;BME280;65671;49.976;20.038;2023-03-20T06:40:55;97983.50;;;7.66;54.12
76746;BME280;65671;49.976;20.038;2023-03-20T06:43:20;97989.78;;;7.80;54.21
76746;BME280;65671;49.976;20.038;2023-03-20T06:49:02;97993.88;;;8.15;55.30
76746;BME280;65671;49.976;20.038;2023-03-20T06:51:28;97995.53;;;8.26;53.86
76746;BME280;65671;49.976;20.038;2023-03-20T06:53:53;97999.50;;;8.39;52.73
76746;BME280;65671;49.976;20.038;2023-03-20T06:56:19;98000.28;;;8.44;53.34
76746;BME280;65671;49.976;20.038;2023-03-20T06:58:45;98003.06;;;8.58;53.69
76746;BME280;65671;49.976;20.038;2023-03-20T07:01:13;98015.88;;;8.75;54.01
76746;BME280;65671;49.976;20.038;2023-03-20T07:03:40;98012.91;;;9.01;52.88
76746;BME280;65671;49.976;20.038;2023-03-20T07:06:31;98015.63;;;9.08;53.13
76746;BME280;65671;49.976;20.038;2023-03-20T07:08:58;98008.38;;;9.30;51.07
76746;BME280;65671;49.976;20.038;2023-03-20T07:11:23;98013.03;;;9.40;50.57
76746;BME280;65671;49.976;20.038;2023-03-20T07:13:49;98006.47;;;9.48;50.48
76746;BME280;65671;49.976;20.038;2023-03-20T07:16:15;98012.31;;;9.53;51.05
76746;BME280;65671;49.976;20.038;2023-03-20T07:18:41;98014.63;;;9.59;52.05
76746;BME280;65671;49.976;20.038;2023-03-20T07:21:06;98006.13;;;9.78;52.20
76746;BME280;65671;49.976;20.038;2023-03-20T07:23:33;98003.78;;;9.51;52.04
76746;BME280;65671;49.976;20.038;2023-03-20T07:25:59;97999.13;;;9.45;50.46
76746;BME280;65671;49.976;20.038;2023-03-20T07:28:25;97995.28;;;9.46;50.38
76746;BME280;65671;49.976;20.038;2023-03-20T07:30:51;97996.47;;;9.59;50.92
76746;BME280;65671;49.976;20.038;2023-03-20T07:33:18;97998.81;;;9.68;50.85
76746;BME280;65671;49.976;20.038;2023-03-20T07:35:44;97999.94;;;9.67;50.10
76746;BME280;65671;49.976;20.038;2023-03-20T07:38:10;97995.72;;;9.73;49.69
76746;BME280;65671;49.976;20.038;2023-03-20T07:40:36;97993.78;;;10.12;49.73
76746;BME280;65671;49.976;20.038;2023-03-20T07:43:02;98004.56;;;10.58;49.95
76746;BME280;65671;49.976;20.038;2023-03-20T07:45:28;98004.88;;;10.78;49.62
76746;BME280;65671;49.976;20.038;2023-03-20T07:47:53;98015.56;;;11.20;49.25
76746;BME280;65671;49.976;20.038;2023-03-20T07:50:19;98017.50;;;11.16;48.77
76746;BME280;65671;49.976;20.038;2023-03-20T07:52:48;98013.69;;;11.03;49.63
76746;BME280;65671;49.976;20.038;2023-03-20T07:55:15;98013.69;;;11.10;49.72
76746;BME280;65671;49.976;20.038;2023-03-20T07:57:41;98018.66;;;11.18;48.28
76746;BME280;65671;49.976;20.038;2023-03-20T08:00:08;98009.31;;;11.30;49.74
76746;BME280;65671;49.976;20.038;2023-03-20T08:02:34;98017.84;;;11.29;48.76
76746;BME280;65671;49.976;20.038;2023-03-20T08:05:00;98005.50;;;11.20;48.37
76746;BME280;65671;49.976;20.038;2023-03-20T08:07:26;98009.78;;;11.14;49.13
76746;BME280;65671;49.976;20.038;2023-03-20T08:09:54;98007.31;;;11.41;49.59
76746;BME280;65671;49.976;20.038;2023-03-20T08:12:20;98006.50;;;11.51;50.48
76746;BME280;65671;49.976;20.038;2023-03-20T08:14:46;98003.34;;;11.60;48.98
76746;BME280;65671;49.976;20.038;2023-03-20T08:17:12;98010.38;;;11.43;50.53
76746;BME280;65671;49.976;20.038;2023-03-20T08:19:39;98006.19;;;11.32;49.87
76746;BME280;65671;49.976;20.038;2023-03-20T08:22:05;98003.28;;;10.98;51.12
76746;BME280;65671;49.976;20.038;2023-03-20T08:24:32;98012.88;;;11.13;52.51
76746;BME280;65671;49.976;20.038;2023-03-20T08:26:58;98008.28;;;11.06;51.57
76746;BME280;65671;49.976;20.038;2023-03-20T08:29:24;98010.25;;;10.92;51.49
76746;BME280;65671;49.976;20.038;2023-03-20T08:31:50;98017.56;;;11.02;52.52
76746;BME280;65671;49.976;20.038;2023-03-20T08:34:17;98012.53;;;11.04;52.51
76746;BME280;65671;49.976;20.038;2023-03-20T08:36:43;98006.63;;;11.23;51.80
76746;BME280;65671;49.976;20.038;2023-03-20T08:39:08;98014.69;;;11.34;52.40
76746;BME280;65671;49.976;20.038;2023-03-20T08:41:36;98018.50;;;11.50;52.82
76746;BME280;65671;49.976;20.038;2023-03-20T08:44:04;98015.91;;;11.22;52.46
76746;BME280;65671;49.976;20.038;2023-03-20T08:46:31;98024.66;;;11.54;51.58
76746;BME280;65671;49.976;20.038;2023-03-20T08:48:57;98021.56;;;11.52;51.37
76746;BME280;65671;49.976;20.038;2023-03-20T08:51:24;98008.63;;;11.81;53.18
76746;BME280;65671;49.976;20.038;2023-03-20T08:53:50;98017.53;;;11.82;52.92
76746;BME280;65671;49.976;20.038;2023-03-20T08:56:16;98033.28;;;11.42;53.89
76746;BME280;65671;49.976;20.038;2023-03-20T08:58:42;98022.44;;;12.04;54.26
76746;BME280;65671;49.976;20.038;2023-03-20T09:01:09;98027.84;;;11.42;53.96
76746;BME280;65671;49.976;20.038;2023-03-20T09:03:36;98019.53;;;11.67;53.30
76746;BME280;65671;49.976;20.038;2023-03-20T09:06:06;98013.56;;;11.93;52.89
76746;BME280;65671;49.976;20.038;2023-03-20T09:08:34;98018.00;;;11.69;53.50
76746;BME280;65671;49.976;20.038;2023-03-20T09:11:00;98021.25;;;11.40;55.03
76746;BME280;65671;49.976;20.038;2023-03-20T09:13:26;98021.81;;;11.83;55.50
76746;BME280;65671;49.976;20.038;2023-03-20T09:15:54;98023.50;;;12.14;54.80
76746;BME280;65671;49.976;20.038;2023-03-20T09:18:20;98028.34;;;11.89;53.41
76746;BME280;65671;49.976;20.038;2023-03-20T09:20:47;98020.22;;;11.85;54.40
76746;BME280;65671;49.976;20.038;2023-03-20T09:23:13;98015.56;;;11.89;53.49
76746;BME280;65671;49.976;20.038;2023-03-20T09:25:39;98021.06;;;12.26;53.90
76746;BME280;65671;49.976;20.038;2023-03-20T09:28:05;98026.97;;;12.14;53.04
76746;BME280;65671;49.976;20.038;2023-03-20T09:30:31;98030.78;;;12.24;53.59
76746;BME280;65671;49.976;20.038;2023-03-20T09:32:58;98025.47;;;12.10;52.82
76746;BME280;65671;49.976;20.038;2023-03-20T09:35:24;98025.88;;;12.05;53.42
76746;BME280;65671;49.976;20.038;2023-03-20T09:37:50;98026.16;;;12.21;53.36
76746;BME280;65671;49.976;20.038;2023-03-20T09:40:26;98027.53;;;12.80;53.11
76746;BME280;65671;49.976;20.038;2023-03-20T09:48:40;98026.25;;;13.53;53.59
76746;BME280;65671;49.976;20.038;2023-03-20T09:53:56;98026.53;;;14.12;49.82
76746;BME280;65671;49.976;20.038;2023-03-20T09:56:25;98031.22;;;14.11;50.54
76746;BME280;65671;49.976;20.038;2023-03-20T09:58:57;98034.13;;;13.74;50.50
76746;BME280;65671;49.976;20.038;2023-03-20T10:01:25;98029.13;;;12.74;52.96
76746;BME280;65671;49.976;20.038;2023-03-20T10:03:55;98016.34;;;12.71;53.58
76746;BME280;65671;49.976;20.038;2023-03-20T10:06:22;98022.59;;;12.68;52.50
76746;BME280;65671;49.976;20.038;2023-03-20T10:08:48;98023.25;;;12.79;53.31
76746;BME280;65671;49.976;20.038;2023-03-20T10:16:58;98019.19;;;12.95;53.28
76746;BME280;65671;49.976;20.038;2023-03-20T10:19:41;98032.88;;;12.50;53.42
76746;BME280;65671;49.976;20.038;2023-03-20T10:24:44;98037.78;;;12.21;53.33
76746;BME280;65671;49.976;20.038;2023-03-20T10:27:39;98026.44;;;12.71;54.35
76746;BME280;65671;49.976;20.038;2023-03-20T10:30:25;98029.00;;;12.51;56.15
76746;BME280;65671;49.976;20.038;2023-03-20T10:33:25;98024.56;;;12.64;54.18
76746;BME280;65671;49.976;20.038;2023-03-20T10:38:49;98027.00;;;12.93;54.11
76746;BME280;65671;49.976;20.038;2023-03-20T10:41:21;98018.94;;;13.19;53.95
76746;BME280;65671;49.976;20.038;2023-03-20T10:43:50;98007.41;;;13.38;52.04
76746;BME280;65671;49.976;20.038;2023-03-20T10:46:30;98010.41;;;13.74;52.45
76746;BME280;65671;49.976;20.038;2023-03-20T10:49:02;97997.66;;;13.94;52.84
76746;BME280;65671;49.976;20.038;2023-03-20T10:51:57;97997.66;;;13.68;51.19
76746;BME280;65671;49.976;20.038;2023-03-20T10:54:33;97998.41;;;13.72;52.22
76746;BME280;65671;49.976;20.038;2023-03-20T10:57:02;98010.19;;;14.12;52.08
76746;BME280;65671;49.976;20.038;2023-03-20T10:59:35;97996.56;;;13.88;52.84
76746;BME280;65671;49.976;20.038;2023-03-20T11:02:09;98000.22;;;13.25;54.86
76746;BME280;65671;49.976;20.038;2023-03-20T11:04:35;97996.69;;;13.28;55.57
76746;BME280;65671;49.976;20.038;2023-03-20T11:07:32;98002.56;;;13.23;56.24
76746;BME280;65671;49.976;20.038;2023-03-20T11:10:37;97993.31;;;13.47;56.39
76746;BME280;65671;49.976;20.038;2023-03-20T11:19:32;97987.81;;;13.77;56.69
76746;BME280;65671;49.976;20.038;2023-03-20T11:22:00;97984.66;;;14.29;56.91
76746;BME280;65671;49.976;20.038;2023-03-20T11:24:41;97980.72;;;14.30;56.41
76746;BME280;65671;49.976;20.038;2023-03-20T11:27:16;97978.25;;;13.92;57.18
76746;BME280;65671;49.976;20.038;2023-03-20T11:29:45;97981.31;;;13.94;57.54
76746;BME280;65671;49.976;20.038;2023-03-20T11:34:39;97982.34;;;13.24;58.77
76746;BME280;65671;49.976;20.038;2023-03-20T11:37:21;97980.09;;;13.19;60.17
76746;BME280;65671;49.976;20.038;2023-03-20T11:40:09;97986.16;;;13.30;59.99
76746;BME280;65671;49.976;20.038;2023-03-20T11:42:35;97987.63;;;13.08;59.78
76746;BME280;65671;49.976;20.038;2023-03-20T11:45:14;97995.00;;;12.70;60.65
76746;BME280;65671;49.976;20.038;2023-03-20T11:47:40;97991.34;;;12.87;61.91
76746;BME280;65671;49.976;20.038;2023-03-20T11:50:29;97983.13;;;12.91;61.48
76746;BME280;65671;49.976;20.038;2023-03-20T11:52:55;97998.44;;;13.11;61.73
76746;BME280;65671;49.976;20.038;2023-03-20T11:55:28;97978.91;;;13.20;61.54
76746;BME280;65671;49.976;20.038;2023-03-20T11:57:59;97987.47;;;12.84;61.05
76746;BME280;65671;49.976;20.038;2023-03-20T12:00:36;97977.91;;;13.07;61.04
76746;BME280;65671;49.976;20.038;2023-03-20T12:03:03;97978.66;;;12.77;62.40
76746;BME280;65671;49.976;20.038;2023-03-20T12:05:32;97976.88;;;12.94;61.43
76746;BME280;65671;49.976;20.038;2023-03-20T12:08:08;97985.78;;;12.98;61.78
76746;BME280;65671;49.976;20.038;2023-03-20T12:10:41;97980.81;;;13.23;61.75
76746;BME280;65671;49.976;20.038;2023-03-20T12:13:19;97987.25;;;13.02;62.81
76746;BME280;65671;49.976;20.038;2023-03-20T12:15:47;97977.50;;;12.74;63.18
76746;BME280;65671;49.976;20.038;2023-03-20T12:21:10;97971.53;;;13.20;61.87
76746;BME280;65671;49.976;20.038;2023-03-20T12:23:56;97970.13;;;13.05;61.55
76746;BME280;65671;49.976;20.038;2023-03-20T12:29:31;97972.03;;;12.78;62.71
76746;BME280;65671;49.976;20.038;2023-03-20T12:32:04;97972.25;;;12.60;63.69
76746;BME280;65671;49.976;20.038;2023-03-20T12:34:41;97966.25;;;12.72;64.00
76746;BME280;65671;49.976;20.038;2023-03-20T12:37:10;97962.31;;;12.80;63.58
76746;BME280;65671;49.976;20.038;2023-03-20T12:39:46;97964.50;;;12.93;63.20
76746;BME280;65671;49.976;20.038;2023-03-20T12:45:11;97971.97;;;12.81;62.84
76746;BME280;65671;49.976;20.038;2023-03-20T12:48:17;97981.53;;;12.63;63.89
76746;BME280;65671;49.976;20.038;2023-03-20T12:50:53;97966.25;;;12.72;64.64
76746;BME280;65671;49.976;20.038;2023-03-20T13:01:21;97960.81;;;12.72;63.59
76746;BME280;65671;49.976;20.038;2023-03-20T13:09:17;97947.75;;;13.28;62.17
76746;BME280;65671;49.976;20.038;2023-03-20T13:15:30;97951.44;;;13.41;62.24
76746;BME280;65671;49.976;20.038;2023-03-20T13:20:55;97947.78;;;13.51;63.71
76746;BME280;65671;49.976;20.038;2023-03-20T13:23:32;97947.56;;;13.38;61.45
76746;BME280;65671;49.976;20.038;2023-03-20T13:29:04;97942.75;;;13.23;63.52
76746;BME280;65671;49.976;20.038;2023-03-20T13:37:20;97933.78;;;12.96;63.26
76746;BME280;65671;49.976;20.038;2023-03-20T13:42:46;97935.84;;;13.45;62.89
76746;BME280;65671;49.976;20.038;2023-03-20T13:45:36;97937.94;;;13.34;63.50
76746;BME280;65671;49.976;20.038;2023-03-20T13:59:33;97934.69;;;13.69;62.56
76746;BME280;65671;49.976;20.038;2023-03-20T14:04:29;97935.91;;;13.88;62.11
76746;BME280;65671;49.976;20.038;2023-03-20T14:06:57;97934.22;;;13.97;61.11
76746;BME280;65671;49.976;20.038;2023-03-20T14:09:34;97936.28;;;14.36;60.61
76746;BME280;65671;49.976;20.038;2023-03-20T14:12:06;97933.59;;;14.33;58.67
76746;BME280;65671;49.976;20.038;2023-03-20T14:14:44;97934.38;;;14.53;57.13
76746;BME280;65671;49.976;20.038;2023-03-20T14:17:19;97927.75;;;14.34;57.11
76746;BME280;65671;49.976;20.038;2023-03-20T14:19:47;97934.47;;;14.26;57.39
76746;BME280;65671;49.976;20.038;2023-03-20T14:22:26;97930.47;;;14.11;59.58
76746;BME280;65671;49.976;20.038;2023-03-20T14:24:59;97924.69;;;13.63;59.30
76746;BME280;65671;49.976;20.038;2023-03-20T14:27:28;97929.97;;;13.20;58.98
76746;BME280;65671;49.976;20.038;2023-03-20T14:29:55;97928.06;;;13.17;58.98
76746;BME280;65671;49.976;20.038;2023-03-20T14:32:30;97921.94;;;13.13;60.15
76746;BME280;65671;49.976;20.038;2023-03-20T14:35:21;97926.66;;;13.05;59.68
76746;BME280;65671;49.976;20.038;2023-03-20T14:40:37;97921.16;;;12.78;60.73
76746;BME280;65671;49.976;20.038;2023-03-20T14:43:29;97918.56;;;12.71;61.45
76746;BME280;65671;49.976;20.038;2023-03-20T14:48:52;97929.66;;;12.50;62.43
76746;BME280;65671;49.976;20.038;2023-03-20T14:51:40;97932.94;;;12.35;63.42
76746;BME280;65671;49.976;20.038;2023-03-20T14:56:47;97925.28;;;12.22;63.77
76746;BME280;65671;49.976;20.038;2023-03-20T14:59:19;97935.03;;;12.20;64.36
76746;BME280;65671;49.976;20.038;2023-03-20T15:01:59;97935.47;;;12.15;65.50
76746;BME280;65671;49.976;20.038;2023-03-20T15:04:36;97929.28;;;12.11;64.72
76746;BME280;65671;49.976;20.038;2023-03-20T15:07:15;97928.94;;;12.09;64.92
76746;BME280;65671;49.976;20.038;2023-03-20T15:09:46;97929.38;;;12.04;65.36
76746;BME280;65671;49.976;20.038;2023-03-20T15:12:18;97931.31;;;12.03;65.63
76746;BME280;65671;49.976;20.038;2023-03-20T15:14:55;97925.88;;;12.03;66.79
76746;BME280;65671;49.976;20.038;2023-03-20T15:17:24;97935.16;;;12.06;66.00
76746;BME280;65671;49.976;20.038;2023-03-20T15:20:14;97934.00;;;12.07;67.27
76746;BME280;65671;49.976;20.038;2023-03-20T15:25:18;97921.59;;;12.06;66.21